Главная страница
METAR-TAF:

METAR-TAF

Аэропорты :

Айдын, Турция

широта: 37-48-54N, долгота: 27-53-21E, высота над уровнем моря: 31 м

Текущие метеонаблюдения

Эта сводка был подготовлена 1 час и 9 минут назад, в 00:50 UTC
Ветер 7 Узел от восточно-северо-восточный
Температура 16°C
Влажность 82%
Давление 1016 hPa
Видимость 10 км и более
Нет облачности ниже 1500 м, и нет кучево-дождевой облачности

METAR: LTBD 230050Z 06007KT CAVOK 16/13 Q1016

Время: 04:59 (01:59 UTC)

Прогноз

Эта сводка был подготовлена 3 часа и 19 минут назад, в 22:40 UTC
Прогноз действительный с 23-го 00 UTC до 23-го 09 UTC
Ветер 2 Узел переменных направлений
Видимость 10 км и более
Нет облачности ниже 1500 м, и нет кучево-дождевой облачности

TAF: LTBD 222240Z 2300/2309 VRB02KT CAVOK

Метеонаблюдения и прогнозы для более 4000 аэропортов (сводки METAR и TAF).

Имеющиеся станции представлены на карте желтыми и красными точками.

Чтобы увидеть название станции, наведите на нее мышь.

Затем щелкните, чтобы увидеть метеонаблюдения и метеопрогнозы.

Управление картой: чтобы увеличить масштаб, щелкните зеленые кнопки с черным крестиком; чтобы уменьшить масштаб, щелкните зеленую кнопку с тире; для просмотра соседних карт щелкайте зеленые стрелки.


METAR-TAF: